sensor_id;sensor_type;location;lat;lon;timestamp;P1;durP1;ratioP1;P2;durP2;ratioP2
77828;SDS011;67019;51.034;3.728;2023-02-18T00:01:37;20.77;;;11.68;;
77828;SDS011;67019;51.034;3.728;2023-02-18T00:04:05;20.30;;;10.70;;
77828;SDS011;67019;51.034;3.728;2023-02-18T00:06:33;21.40;;;12.07;;
77828;SDS011;67019;51.034;3.728;2023-02-18T00:11:31;13.88;;;9.50;;
77828;SDS011;67019;51.034;3.728;2023-02-18T00:14:01;18.20;;;10.23;;
77828;SDS011;67019;51.034;3.728;2023-02-18T00:16:30;21.07;;;10.70;;
77828;SDS011;67019;51.034;3.728;2023-02-18T00:19:00;17.62;;;11.35;;
77828;SDS011;67019;51.034;3.728;2023-02-18T00:21:28;18.00;;;11.22;;
77828;SDS011;67019;51.034;3.728;2023-02-18T00:23:57;21.60;;;12.35;;
77828;SDS011;67019;51.034;3.728;2023-02-18T00:26:25;20.48;;;13.53;;
77828;SDS011;67019;51.034;3.728;2023-02-18T00:28:53;17.20;;;10.50;;
77828;SDS011;67019;51.034;3.728;2023-02-18T00:31:23;15.50;;;10.82;;
77828;SDS011;67019;51.034;3.728;2023-02-18T00:33:56;20.17;;;11.93;;
77828;SDS011;67019;51.034;3.728;2023-02-18T00:36:24;19.55;;;11.95;;
77828;SDS011;67019;51.034;3.728;2023-02-18T00:38:54;20.57;;;10.93;;
77828;SDS011;67019;51.034;3.728;2023-02-18T00:43:52;22.02;;;12.47;;
77828;SDS011;67019;51.034;3.728;2023-02-18T00:46:20;17.02;;;10.55;;
77828;SDS011;67019;51.034;3.728;2023-02-18T00:48:48;17.02;;;10.10;;
77828;SDS011;67019;51.034;3.728;2023-02-18T00:51:16;19.77;;;11.97;;
77828;SDS011;67019;51.034;3.728;2023-02-18T00:53:44;19.48;;;11.43;;
77828;SDS011;67019;51.034;3.728;2023-02-18T00:56:12;19.67;;;10.70;;
77828;SDS011;67019;51.034;3.728;2023-02-18T00:58:40;23.42;;;10.75;;
77828;SDS011;67019;51.034;3.728;2023-02-18T01:01:08;18.90;;;9.93;;
77828;SDS011;67019;51.034;3.728;2023-02-18T01:03:39;18.42;;;11.45;;
77828;SDS011;67019;51.034;3.728;2023-02-18T01:06:06;22.83;;;10.73;;
77828;SDS011;67019;51.034;3.728;2023-02-18T01:08:35;19.17;;;9.45;;
77828;SDS011;67019;51.034;3.728;2023-02-18T01:11:04;18.02;;;10.30;;
77828;SDS011;67019;51.034;3.728;2023-02-18T01:13:32;19.75;;;10.40;;
77828;SDS011;67019;51.034;3.728;2023-02-18T01:16:00;17.67;;;10.48;;
77828;SDS011;67019;51.034;3.728;2023-02-18T01:18:28;21.97;;;10.32;;
77828;SDS011;67019;51.034;3.728;2023-02-18T01:20:56;14.50;;;8.13;;
77828;SDS011;67019;51.034;3.728;2023-02-18T01:23:24;16.65;;;9.95;;
77828;SDS011;67019;51.034;3.728;2023-02-18T01:25:53;17.62;;;10.30;;
77828;SDS011;67019;51.034;3.728;2023-02-18T01:28:22;15.50;;;10.03;;
77828;SDS011;67019;51.034;3.728;2023-02-18T01:30:51;16.45;;;8.83;;
77828;SDS011;67019;51.034;3.728;2023-02-18T01:33:20;15.28;;;8.70;;
77828;SDS011;67019;51.034;3.728;2023-02-18T01:35:48;15.93;;;9.33;;
77828;SDS011;67019;51.034;3.728;2023-02-18T01:38:18;16.55;;;8.75;;
77828;SDS011;67019;51.034;3.728;2023-02-18T01:40:49;21.52;;;10.78;;
77828;SDS011;67019;51.034;3.728;2023-02-18T01:43:17;15.63;;;9.05;;
77828;SDS011;67019;51.034;3.728;2023-02-18T01:46:04;15.72;;;8.30;;
77828;SDS011;67019;51.034;3.728;2023-02-18T01:48:43;15.18;;;8.83;;
77828;SDS011;67019;51.034;3.728;2023-02-18T01:51:17;18.20;;;9.33;;
77828;SDS011;67019;51.034;3.728;2023-02-18T01:56:41;13.60;;;8.18;;
77828;SDS011;67019;51.034;3.728;2023-02-18T01:59:15;16.23;;;8.15;;
77828;SDS011;67019;51.034;3.728;2023-02-18T02:01:44;13.85;;;8.50;;
77828;SDS011;67019;51.034;3.728;2023-02-18T02:04:12;13.08;;;8.63;;
77828;SDS011;67019;51.034;3.728;2023-02-18T02:06:40;14.15;;;8.68;;
77828;SDS011;67019;51.034;3.728;2023-02-18T02:09:08;15.00;;;8.30;;
77828;SDS011;67019;51.034;3.728;2023-02-18T02:11:40;11.10;;;7.42;;
77828;SDS011;67019;51.034;3.728;2023-02-18T02:14:21;13.20;;;7.87;;
77828;SDS011;67019;51.034;3.728;2023-02-18T02:17:03;12.28;;;7.37;;
77828;SDS011;67019;51.034;3.728;2023-02-18T02:28:19;11.53;;;7.37;;
77828;SDS011;67019;51.034;3.728;2023-02-18T02:33:42;9.68;;;6.65;;
77828;SDS011;67019;51.034;3.728;2023-02-18T02:36:19;8.35;;;5.53;;
77828;SDS011;67019;51.034;3.728;2023-02-18T02:41:35;14.00;;;6.30;;
77828;SDS011;67019;51.034;3.728;2023-02-18T02:44:18;8.03;;;5.45;;
77828;SDS011;67019;51.034;3.728;2023-02-18T02:46:52;9.55;;;5.33;;
77828;SDS011;67019;51.034;3.728;2023-02-18T02:52:02;10.20;;;5.22;;
77828;SDS011;67019;51.034;3.728;2023-02-18T02:54:32;6.72;;;4.62;;
77828;SDS011;67019;51.034;3.728;2023-02-18T02:57:05;7.87;;;4.17;;
77828;SDS011;67019;51.034;3.728;2023-02-18T02:59:35;6.55;;;4.50;;
77828;SDS011;67019;51.034;3.728;2023-02-18T03:04:55;5.87;;;4.33;;
77828;SDS011;67019;51.034;3.728;2023-02-18T03:10:56;8.25;;;5.35;;
77828;SDS011;67019;51.034;3.728;2023-02-18T03:13:44;7.47;;;4.70;;
77828;SDS011;67019;51.034;3.728;2023-02-18T03:18:56;8.98;;;3.12;;
77828;SDS011;67019;51.034;3.728;2023-02-18T03:24:28;6.62;;;4.90;;
77828;SDS011;67019;51.034;3.728;2023-02-18T03:26:55;8.75;;;4.55;;
77828;SDS011;67019;51.034;3.728;2023-02-18T03:29:24;6.78;;;4.00;;
77828;SDS011;67019;51.034;3.728;2023-02-18T03:31:55;5.97;;;3.70;;
77828;SDS011;67019;51.034;3.728;2023-02-18T03:36:52;8.63;;;5.10;;
77828;SDS011;67019;51.034;3.728;2023-02-18T03:39:20;9.93;;;5.85;;
77828;SDS011;67019;51.034;3.728;2023-02-18T03:44:18;8.40;;;4.30;;
77828;SDS011;67019;51.034;3.728;2023-02-18T03:46:47;10.65;;;6.30;;
77828;SDS011;67019;51.034;3.728;2023-02-18T03:49:16;9.93;;;5.30;;
77828;SDS011;67019;51.034;3.728;2023-02-18T03:51:44;11.00;;;5.30;;
77828;SDS011;67019;51.034;3.728;2023-02-18T03:54:12;9.00;;;5.28;;
77828;SDS011;67019;51.034;3.728;2023-02-18T03:56:40;6.30;;;4.65;;
77828;SDS011;67019;51.034;3.728;2023-02-18T03:59:07;10.43;;;5.67;;
77828;SDS011;67019;51.034;3.728;2023-02-18T04:01:36;9.08;;;4.67;;
77828;SDS011;67019;51.034;3.728;2023-02-18T04:04:04;5.78;;;4.05;;
77828;SDS011;67019;51.034;3.728;2023-02-18T04:06:32;5.53;;;3.42;;
77828;SDS011;67019;51.034;3.728;2023-02-18T04:09:00;4.70;;;3.72;;
77828;SDS011;67019;51.034;3.728;2023-02-18T04:11:30;5.95;;;4.40;;
77828;SDS011;67019;51.034;3.728;2023-02-18T04:13:58;5.30;;;3.98;;
77828;SDS011;67019;51.034;3.728;2023-02-18T04:16:25;4.20;;;2.92;;
77828;SDS011;67019;51.034;3.728;2023-02-18T04:18:54;6.03;;;4.22;;
77828;SDS011;67019;51.034;3.728;2023-02-18T04:21:22;6.53;;;3.90;;
77828;SDS011;67019;51.034;3.728;2023-02-18T04:23:50;5.95;;;4.35;;
77828;SDS011;67019;51.034;3.728;2023-02-18T04:26:17;6.85;;;4.20;;
77828;SDS011;67019;51.034;3.728;2023-02-18T04:28:45;10.13;;;5.47;;
77828;SDS011;67019;51.034;3.728;2023-02-18T04:31:13;5.72;;;4.08;;
77828;SDS011;67019;51.034;3.728;2023-02-18T04:33:41;8.33;;;4.92;;
77828;SDS011;67019;51.034;3.728;2023-02-18T04:36:08;8.08;;;4.95;;
77828;SDS011;67019;51.034;3.728;2023-02-18T04:38:36;8.25;;;5.22;;
77828;SDS011;67019;51.034;3.728;2023-02-18T04:41:04;6.75;;;4.90;;
77828;SDS011;67019;51.034;3.728;2023-02-18T04:43:31;9.53;;;5.17;;
77828;SDS011;67019;51.034;3.728;2023-02-18T04:46:00;8.60;;;5.47;;
77828;SDS011;67019;51.034;3.728;2023-02-18T04:48:28;6.83;;;4.78;;
77828;SDS011;67019;51.034;3.728;2023-02-18T04:50:56;8.05;;;5.53;;
77828;SDS011;67019;51.034;3.728;2023-02-18T04:53:23;11.40;;;4.87;;
77828;SDS011;67019;51.034;3.728;2023-02-18T04:55:51;8.58;;;4.53;;
77828;SDS011;67019;51.034;3.728;2023-02-18T04:58:19;26.07;;;7.25;;
77828;SDS011;67019;51.034;3.728;2023-02-18T05:00:47;11.38;;;5.15;;
77828;SDS011;67019;51.034;3.728;2023-02-18T05:03:15;5.70;;;4.08;;
77828;SDS011;67019;51.034;3.728;2023-02-18T05:05:43;10.03;;;5.50;;
77828;SDS011;67019;51.034;3.728;2023-02-18T05:08:11;10.95;;;5.47;;
77828;SDS011;67019;51.034;3.728;2023-02-18T05:10:38;8.98;;;4.12;;
77828;SDS011;67019;51.034;3.728;2023-02-18T05:13:06;10.72;;;5.95;;
77828;SDS011;67019;51.034;3.728;2023-02-18T05:15:34;14.98;;;5.35;;
77828;SDS011;67019;51.034;3.728;2023-02-18T05:18:01;8.48;;;4.55;;
77828;SDS011;67019;51.034;3.728;2023-02-18T05:20:29;14.03;;;5.55;;
77828;SDS011;67019;51.034;3.728;2023-02-18T05:22:57;9.23;;;3.75;;
77828;SDS011;67019;51.034;3.728;2023-02-18T05:25:24;8.75;;;3.87;;
77828;SDS011;67019;51.034;3.728;2023-02-18T05:27:52;13.30;;;4.03;;
77828;SDS011;67019;51.034;3.728;2023-02-18T05:30:20;13.08;;;3.62;;
77828;SDS011;67019;51.034;3.728;2023-02-18T05:32:49;7.72;;;2.72;;
77828;SDS011;67019;51.034;3.728;2023-02-18T05:35:16;10.53;;;2.87;;
77828;SDS011;67019;51.034;3.728;2023-02-18T05:37:44;9.95;;;3.12;;
77828;SDS011;67019;51.034;3.728;2023-02-18T05:40:12;13.22;;;3.17;;
77828;SDS011;67019;51.034;3.728;2023-02-18T05:42:39;14.83;;;2.75;;
77828;SDS011;67019;51.034;3.728;2023-02-18T05:45:07;8.80;;;2.30;;
77828;SDS011;67019;51.034;3.728;2023-02-18T05:47:35;12.45;;;2.83;;
77828;SDS011;67019;51.034;3.728;2023-02-18T05:50:03;9.85;;;2.42;;
77828;SDS011;67019;51.034;3.728;2023-02-18T05:52:31;15.83;;;2.90;;
77828;SDS011;67019;51.034;3.728;2023-02-18T05:54:59;17.02;;;2.12;;
77828;SDS011;67019;51.034;3.728;2023-02-18T05:57:26;14.33;;;2.72;;
77828;SDS011;67019;51.034;3.728;2023-02-18T05:59:54;10.20;;;2.27;;
77828;SDS011;67019;51.034;3.728;2023-02-18T06:02:23;17.48;;;2.62;;
77828;SDS011;67019;51.034;3.728;2023-02-18T06:04:51;13.43;;;2.70;;
77828;SDS011;67019;51.034;3.728;2023-02-18T06:07:18;6.35;;;1.98;;
77828;SDS011;67019;51.034;3.728;2023-02-18T06:09:46;18.50;;;3.50;;
77828;SDS011;67019;51.034;3.728;2023-02-18T06:12:14;8.78;;;1.95;;
77828;SDS011;67019;51.034;3.728;2023-02-18T06:14:41;24.55;;;4.28;;
77828;SDS011;67019;51.034;3.728;2023-02-18T06:17:10;15.40;;;2.22;;
77828;SDS011;67019;51.034;3.728;2023-02-18T06:19:38;11.57;;;3.08;;
77828;SDS011;67019;51.034;3.728;2023-02-18T06:22:06;10.10;;;2.25;;
77828;SDS011;67019;51.034;3.728;2023-02-18T06:24:34;5.90;;;2.02;;
77828;SDS011;67019;51.034;3.728;2023-02-18T06:27:02;19.98;;;3.12;;
77828;SDS011;67019;51.034;3.728;2023-02-18T06:29:30;20.15;;;3.00;;
77828;SDS011;67019;51.034;3.728;2023-02-18T06:31:58;12.30;;;4.10;;
77828;SDS011;67019;51.034;3.728;2023-02-18T06:34:26;12.28;;;3.05;;
77828;SDS011;67019;51.034;3.728;2023-02-18T06:36:53;7.95;;;1.77;;
77828;SDS011;67019;51.034;3.728;2023-02-18T06:39:21;13.88;;;2.72;;
77828;SDS011;67019;51.034;3.728;2023-02-18T06:41:49;14.40;;;2.65;;
77828;SDS011;67019;51.034;3.728;2023-02-18T06:44:16;13.90;;;2.87;;
77828;SDS011;67019;51.034;3.728;2023-02-18T06:46:44;15.65;;;3.40;;
77828;SDS011;67019;51.034;3.728;2023-02-18T06:49:20;10.70;;;2.45;;
77828;SDS011;67019;51.034;3.728;2023-02-18T06:51:45;15.25;;;2.92;;
77828;SDS011;67019;51.034;3.728;2023-02-18T06:54:12;5.97;;;1.45;;
77828;SDS011;67019;51.034;3.728;2023-02-18T06:56:40;10.40;;;2.37;;
77828;SDS011;67019;51.034;3.728;2023-02-18T06:59:09;8.43;;;2.33;;
77828;SDS011;67019;51.034;3.728;2023-02-18T07:01:39;6.33;;;1.32;;
77828;SDS011;67019;51.034;3.728;2023-02-18T07:04:06;17.10;;;2.20;;
77828;SDS011;67019;51.034;3.728;2023-02-18T07:06:34;10.00;;;4.40;;
77828;SDS011;67019;51.034;3.728;2023-02-18T07:09:04;9.38;;;1.80;;
77828;SDS011;67019;51.034;3.728;2023-02-18T07:11:31;12.65;;;3.20;;
77828;SDS011;67019;51.034;3.728;2023-02-18T07:13:59;22.45;;;6.10;;
77828;SDS011;67019;51.034;3.728;2023-02-18T07:16:27;10.98;;;4.75;;
77828;SDS011;67019;51.034;3.728;2023-02-18T07:18:55;8.75;;;2.58;;
77828;SDS011;67019;51.034;3.728;2023-02-18T07:21:23;12.43;;;4.03;;
77828;SDS011;67019;51.034;3.728;2023-02-18T07:23:51;6.15;;;2.20;;
77828;SDS011;67019;51.034;3.728;2023-02-18T07:26:18;5.78;;;1.10;;
77828;SDS011;67019;51.034;3.728;2023-02-18T07:28:46;12.03;;;2.72;;
77828;SDS011;67019;51.034;3.728;2023-02-18T07:31:14;10.53;;;2.05;;
77828;SDS011;67019;51.034;3.728;2023-02-18T07:33:42;12.00;;;2.17;;
77828;SDS011;67019;51.034;3.728;2023-02-18T07:36:10;3.95;;;1.72;;
77828;SDS011;67019;51.034;3.728;2023-02-18T07:38:37;17.15;;;3.42;;
77828;SDS011;67019;51.034;3.728;2023-02-18T07:41:11;7.75;;;2.22;;
77828;SDS011;67019;51.034;3.728;2023-02-18T07:43:48;10.53;;;1.90;;
77828;SDS011;67019;51.034;3.728;2023-02-18T07:46:16;3.65;;;1.50;;
77828;SDS011;67019;51.034;3.728;2023-02-18T07:48:45;13.08;;;2.47;;
77828;SDS011;67019;51.034;3.728;2023-02-18T07:51:13;15.23;;;4.22;;
77828;SDS011;67019;51.034;3.728;2023-02-18T07:53:40;5.03;;;1.80;;
77828;SDS011;67019;51.034;3.728;2023-02-18T07:56:08;12.00;;;2.20;;
77828;SDS011;67019;51.034;3.728;2023-02-18T07:58:37;12.90;;;3.42;;
77828;SDS011;67019;51.034;3.728;2023-02-18T08:01:05;6.85;;;2.37;;
77828;SDS011;67019;51.034;3.728;2023-02-18T08:03:34;13.40;;;2.35;;
77828;SDS011;67019;51.034;3.728;2023-02-18T08:06:03;6.47;;;1.60;;
77828;SDS011;67019;51.034;3.728;2023-02-18T08:08:32;11.40;;;2.92;;
77828;SDS011;67019;51.034;3.728;2023-02-18T08:11:00;7.70;;;1.75;;
77828;SDS011;67019;51.034;3.728;2023-02-18T08:13:29;11.68;;;2.02;;
77828;SDS011;67019;51.034;3.728;2023-02-18T08:15:57;12.68;;;1.82;;
77828;SDS011;67019;51.034;3.728;2023-02-18T08:18:25;6.33;;;1.60;;
77828;SDS011;67019;51.034;3.728;2023-02-18T08:20:53;9.60;;;2.58;;
77828;SDS011;67019;51.034;3.728;2023-02-18T08:23:20;10.53;;;2.25;;
77828;SDS011;67019;51.034;3.728;2023-02-18T08:25:51;11.10;;;1.45;;
77828;SDS011;67019;51.034;3.728;2023-02-18T08:28:20;13.10;;;2.08;;
77828;SDS011;67019;51.034;3.728;2023-02-18T08:30:49;7.97;;;1.72;;
77828;SDS011;67019;51.034;3.728;2023-02-18T08:33:21;9.15;;;1.72;;
77828;SDS011;67019;51.034;3.728;2023-02-18T08:35:50;8.18;;;1.77;;
77828;SDS011;67019;51.034;3.728;2023-02-18T08:38:19;11.15;;;2.95;;
77828;SDS011;67019;51.034;3.728;2023-02-18T08:43:20;6.55;;;1.65;;
77828;SDS011;67019;51.034;3.728;2023-02-18T08:45:49;11.45;;;2.45;;
77828;SDS011;67019;51.034;3.728;2023-02-18T08:48:16;7.97;;;2.30;;
77828;SDS011;67019;51.034;3.728;2023-02-18T08:50:44;12.80;;;1.87;;
77828;SDS011;67019;51.034;3.728;2023-02-18T08:53:12;4.87;;;1.70;;
77828;SDS011;67019;51.034;3.728;2023-02-18T08:55:40;8.25;;;1.82;;
77828;SDS011;67019;51.034;3.728;2023-02-18T08:58:08;17.17;;;3.15;;
77828;SDS011;67019;51.034;3.728;2023-02-18T09:00:36;13.00;;;3.42;;
77828;SDS011;67019;51.034;3.728;2023-02-18T09:03:04;11.60;;;2.25;;
77828;SDS011;67019;51.034;3.728;2023-02-18T09:05:32;8.50;;;2.27;;
77828;SDS011;67019;51.034;3.728;2023-02-18T09:08:01;7.80;;;1.40;;
77828;SDS011;67019;51.034;3.728;2023-02-18T09:10:29;9.73;;;1.87;;
77828;SDS011;67019;51.034;3.728;2023-02-18T09:12:56;17.50;;;4.80;;
77828;SDS011;67019;51.034;3.728;2023-02-18T09:15:24;11.80;;;2.25;;
77828;SDS011;67019;51.034;3.728;2023-02-18T09:17:52;23.18;;;4.15;;
77828;SDS011;67019;51.034;3.728;2023-02-18T09:20:19;7.80;;;2.12;;
77828;SDS011;67019;51.034;3.728;2023-02-18T09:22:47;18.05;;;3.52;;
77828;SDS011;67019;51.034;3.728;2023-02-18T09:25:15;6.90;;;2.50;;
77828;SDS011;67019;51.034;3.728;2023-02-18T09:27:44;11.55;;;2.67;;
77828;SDS011;67019;51.034;3.728;2023-02-18T09:30:12;11.43;;;2.62;;
77828;SDS011;67019;51.034;3.728;2023-02-18T09:32:39;7.58;;;2.17;;
77828;SDS011;67019;51.034;3.728;2023-02-18T09:35:07;17.55;;;2.77;;
77828;SDS011;67019;51.034;3.728;2023-02-18T09:37:35;16.07;;;3.60;;
77828;SDS011;67019;51.034;3.728;2023-02-18T09:40:04;11.50;;;2.58;;
77828;SDS011;67019;51.034;3.728;2023-02-18T09:42:33;13.65;;;2.15;;
77828;SDS011;67019;51.034;3.728;2023-02-18T09:45:05;21.73;;;2.62;;
77828;SDS011;67019;51.034;3.728;2023-02-18T09:47:37;9.08;;;1.75;;
77828;SDS011;67019;51.034;3.728;2023-02-18T09:50:18;9.23;;;2.22;;
77828;SDS011;67019;51.034;3.728;2023-02-18T09:52:40;13.93;;;2.67;;
77828;SDS011;67019;51.034;3.728;2023-02-18T09:55:16;9.78;;;1.47;;
77828;SDS011;67019;51.034;3.728;2023-02-18T09:57:52;13.65;;;2.58;;
77828;SDS011;67019;51.034;3.728;2023-02-18T10:00:22;13.68;;;2.67;;
77828;SDS011;67019;51.034;3.728;2023-02-18T10:05:22;8.20;;;2.90;;
77828;SDS011;67019;51.034;3.728;2023-02-18T10:07:53;8.30;;;2.02;;
77828;SDS011;67019;51.034;3.728;2023-02-18T10:13:09;16.82;;;3.58;;
77828;SDS011;67019;51.034;3.728;2023-02-18T10:15:42;8.63;;;1.82;;
77828;SDS011;67019;51.034;3.728;2023-02-18T10:20:47;14.30;;;2.70;;
77828;SDS011;67019;51.034;3.728;2023-02-18T10:23:17;15.15;;;3.90;;
77828;SDS011;67019;51.034;3.728;2023-02-18T10:25:46;20.32;;;3.27;;
77828;SDS011;67019;51.034;3.728;2023-02-18T10:28:15;12.63;;;3.83;;
77828;SDS011;67019;51.034;3.728;2023-02-18T10:30:46;19.00;;;3.30;;
77828;SDS011;67019;51.034;3.728;2023-02-18T10:38:50;16.60;;;2.37;;
77828;SDS011;67019;51.034;3.728;2023-02-18T10:46:16;19.40;;;3.02;;
77828;SDS011;67019;51.034;3.728;2023-02-18T10:48:56;8.68;;;3.30;;
77828;SDS011;67019;51.034;3.728;2023-02-18T10:51:33;10.55;;;2.87;;
77828;SDS011;67019;51.034;3.728;2023-02-18T10:56:34;19.37;;;2.85;;
77828;SDS011;67019;51.034;3.728;2023-02-18T11:01:58;17.85;;;4.40;;
77828;SDS011;67019;51.034;3.728;2023-02-18T11:04:35;11.85;;;3.00;;
77828;SDS011;67019;51.034;3.728;2023-02-18T11:07:05;14.18;;;3.25;;
77828;SDS011;67019;51.034;3.728;2023-02-18T11:09:47;14.63;;;2.40;;
77828;SDS011;67019;51.034;3.728;2023-02-18T11:12:23;13.22;;;2.30;;
77828;SDS011;67019;51.034;3.728;2023-02-18T11:20:19;11.65;;;2.45;;
77828;SDS011;67019;51.034;3.728;2023-02-18T11:22:34;11.75;;;2.52;;
77828;SDS011;67019;51.034;3.728;2023-02-18T11:25:18;10.18;;;3.30;;
77828;SDS011;67019;51.034;3.728;2023-02-18T11:27:50;13.03;;;2.77;;
77828;SDS011;67019;51.034;3.728;2023-02-18T11:30:35;10.82;;;2.67;;
77828;SDS011;67019;51.034;3.728;2023-02-18T11:33:08;9.45;;;2.10;;
77828;SDS011;67019;51.034;3.728;2023-02-18T11:35:37;12.07;;;2.45;;
77828;SDS011;67019;51.034;3.728;2023-02-18T11:38:13;7.97;;;1.62;;
77828;SDS011;67019;51.034;3.728;2023-02-18T11:40:36;11.55;;;2.42;;
77828;SDS011;67019;51.034;3.728;2023-02-18T11:43:04;12.10;;;2.05;;
77828;SDS011;67019;51.034;3.728;2023-02-18T11:45:41;11.03;;;2.80;;
77828;SDS011;67019;51.034;3.728;2023-02-18T11:48:21;9.08;;;2.75;;
77828;SDS011;67019;51.034;3.728;2023-02-18T11:50:45;9.33;;;2.15;;
77828;SDS011;67019;51.034;3.728;2023-02-18T11:53:26;10.48;;;3.00;;
77828;SDS011;67019;51.034;3.728;2023-02-18T11:55:56;12.05;;;2.22;;
77828;SDS011;67019;51.034;3.728;2023-02-18T12:00:54;4.92;;;2.10;;
77828;SDS011;67019;51.034;3.728;2023-02-18T12:06:00;8.30;;;2.05;;
77828;SDS011;67019;51.034;3.728;2023-02-18T12:08:31;15.88;;;3.20;;
77828;SDS011;67019;51.034;3.728;2023-02-18T12:11:11;10.38;;;3.65;;
77828;SDS011;67019;51.034;3.728;2023-02-18T12:13:49;10.47;;;1.97;;
77828;SDS011;67019;51.034;3.728;2023-02-18T12:16:24;9.38;;;1.98;;
77828;SDS011;67019;51.034;3.728;2023-02-18T12:21:57;14.18;;;2.67;;
77828;SDS011;67019;51.034;3.728;2023-02-18T12:24:15;15.03;;;3.50;;
77828;SDS011;67019;51.034;3.728;2023-02-18T12:27:56;8.55;;;1.67;;
77828;SDS011;67019;51.034;3.728;2023-02-18T12:29:55;8.60;;;2.00;;
77828;SDS011;67019;51.034;3.728;2023-02-18T12:32:34;6.55;;;1.87;;
77828;SDS011;67019;51.034;3.728;2023-02-18T12:37:50;10.05;;;2.95;;
77828;SDS011;67019;51.034;3.728;2023-02-18T12:48:32;9.70;;;2.08;;
77828;SDS011;67019;51.034;3.728;2023-02-18T12:53:52;4.87;;;1.77;;
77828;SDS011;67019;51.034;3.728;2023-02-18T12:56:37;8.83;;;2.40;;
77828;SDS011;67019;51.034;3.728;2023-02-18T12:59:10;18.90;;;4.58;;
77828;SDS011;67019;51.034;3.728;2023-02-18T13:04:12;12.50;;;2.12;;
77828;SDS011;67019;51.034;3.728;2023-02-18T13:07:02;21.23;;;2.62;;
77828;SDS011;67019;51.034;3.728;2023-02-18T13:09:46;12.80;;;2.90;;
77828;SDS011;67019;51.034;3.728;2023-02-18T13:12:45;16.85;;;2.45;;
77828;SDS011;67019;51.034;3.728;2023-02-18T13:18:08;19.98;;;3.00;;
77828;SDS011;67019;51.034;3.728;2023-02-18T13:20:43;7.62;;;2.45;;
77828;SDS011;67019;51.034;3.728;2023-02-18T13:23:18;11.70;;;2.17;;
77828;SDS011;67019;51.034;3.728;2023-02-18T13:25:55;6.20;;;2.10;;
77828;SDS011;67019;51.034;3.728;2023-02-18T13:28:25;6.72;;;2.20;;
77828;SDS011;67019;51.034;3.728;2023-02-18T13:34:01;6.40;;;2.60;;
77828;SDS011;67019;51.034;3.728;2023-02-18T13:39:06;11.57;;;3.75;;
77828;SDS011;67019;51.034;3.728;2023-02-18T13:44:07;4.40;;;2.05;;
77828;SDS011;67019;51.034;3.728;2023-02-18T13:46:54;15.10;;;3.65;;
77828;SDS011;67019;51.034;3.728;2023-02-18T13:49:32;14.58;;;2.85;;
77828;SDS011;67019;51.034;3.728;2023-02-18T13:52:00;10.65;;;3.90;;
77828;SDS011;67019;51.034;3.728;2023-02-18T13:57:13;13.35;;;3.00;;
77828;SDS011;67019;51.034;3.728;2023-02-18T13:59:56;6.13;;;1.80;;
77828;SDS011;67019;51.034;3.728;2023-02-18T14:07:36;11.00;;;4.33;;
77828;SDS011;67019;51.034;3.728;2023-02-18T14:10:13;12.37;;;3.12;;
77828;SDS011;67019;51.034;3.728;2023-02-18T14:20:27;14.33;;;4.15;;
77828;SDS011;67019;51.034;3.728;2023-02-18T14:25:49;11.55;;;3.30;;
77828;SDS011;67019;51.034;3.728;2023-02-18T14:39:51;13.10;;;4.58;;
77828;SDS011;67019;51.034;3.728;2023-02-18T14:45:47;16.02;;;4.50;;
77828;SDS011;67019;51.034;3.728;2023-02-18T14:48:50;7.37;;;3.65;;
77828;SDS011;67019;51.034;3.728;2023-02-18T14:51:24;17.73;;;3.83;;
77828;SDS011;67019;51.034;3.728;2023-02-18T14:53:54;11.53;;;4.37;;
77828;SDS011;67019;51.034;3.728;2023-02-18T14:56:22;11.05;;;3.20;;
77828;SDS011;67019;51.034;3.728;2023-02-18T14:58:51;14.20;;;3.87;;
77828;SDS011;67019;51.034;3.728;2023-02-18T15:01:22;15.93;;;3.52;;
77828;SDS011;67019;51.034;3.728;2023-02-18T15:03:53;5.25;;;2.55;;
77828;SDS011;67019;51.034;3.728;2023-02-18T15:08:57;7.97;;;3.25;;
77828;SDS011;67019;51.034;3.728;2023-02-18T15:11:36;13.50;;;4.75;;
77828;SDS011;67019;51.034;3.728;2023-02-18T15:14:19;14.35;;;4.67;;
77828;SDS011;67019;51.034;3.728;2023-02-18T15:16:45;10.55;;;3.40;;
77828;SDS011;67019;51.034;3.728;2023-02-18T15:19:15;7.53;;;3.27;;
77828;SDS011;67019;51.034;3.728;2023-02-18T15:21:45;13.68;;;4.10;;
77828;SDS011;67019;51.034;3.728;2023-02-18T15:24:34;19.05;;;5.80;;
77828;SDS011;67019;51.034;3.728;2023-02-18T15:27:08;7.28;;;3.10;;
77828;SDS011;67019;51.034;3.728;2023-02-18T15:29:40;16.75;;;3.35;;
77828;SDS011;67019;51.034;3.728;2023-02-18T15:32:18;10.38;;;3.02;;
77828;SDS011;67019;51.034;3.728;2023-02-18T15:34:51;11.15;;;2.95;;
77828;SDS011;67019;51.034;3.728;2023-02-18T15:37:21;9.90;;;3.02;;
77828;SDS011;67019;51.034;3.728;2023-02-18T15:39:48;18.37;;;3.25;;
77828;SDS011;67019;51.034;3.728;2023-02-18T15:42:34;4.55;;;2.17;;
77828;SDS011;67019;51.034;3.728;2023-02-18T15:47:32;6.80;;;2.50;;
77828;SDS011;67019;51.034;3.728;2023-02-18T15:50:00;5.87;;;2.10;;
77828;SDS011;67019;51.034;3.728;2023-02-18T15:52:31;9.20;;;3.17;;
77828;SDS011;67019;51.034;3.728;2023-02-18T15:55:08;18.12;;;4.75;;
77828;SDS011;67019;51.034;3.728;2023-02-18T15:57:34;6.97;;;3.25;;
77828;SDS011;67019;51.034;3.728;2023-02-18T16:00:13;14.87;;;4.00;;
77828;SDS011;67019;51.034;3.728;2023-02-18T16:02:33;5.65;;;3.58;;
77828;SDS011;67019;51.034;3.728;2023-02-18T16:05:01;12.93;;;3.77;;
77828;SDS011;67019;51.034;3.728;2023-02-18T16:07:36;9.50;;;3.27;;
77828;SDS011;67019;51.034;3.728;2023-02-18T16:10:23;11.38;;;4.65;;
77828;SDS011;67019;51.034;3.728;2023-02-18T16:12:57;10.13;;;3.92;;
77828;SDS011;67019;51.034;3.728;2023-02-18T16:15:28;7.55;;;3.47;;
77828;SDS011;67019;51.034;3.728;2023-02-18T16:17:58;11.83;;;5.78;;
77828;SDS011;67019;51.034;3.728;2023-02-18T16:20:32;9.98;;;4.90;;
77828;SDS011;67019;51.034;3.728;2023-02-18T16:23:00;6.17;;;3.08;;
77828;SDS011;67019;51.034;3.728;2023-02-18T16:25:42;11.15;;;5.03;;
77828;SDS011;67019;51.034;3.728;2023-02-18T16:28:16;11.50;;;4.75;;
77828;SDS011;67019;51.034;3.728;2023-02-18T16:30:53;17.77;;;6.62;;
77828;SDS011;67019;51.034;3.728;2023-02-18T16:33:20;15.83;;;6.45;;
77828;SDS011;67019;51.034;3.728;2023-02-18T16:35:48;11.57;;;5.28;;
77828;SDS011;67019;51.034;3.728;2023-02-18T16:38:20;16.32;;;5.78;;
77828;SDS011;67019;51.034;3.728;2023-02-18T16:40:49;15.68;;;6.87;;
77828;SDS011;67019;51.034;3.728;2023-02-18T16:43:20;17.57;;;5.50;;
77828;SDS011;67019;51.034;3.728;2023-02-18T16:45:55;17.50;;;7.78;;
77828;SDS011;67019;51.034;3.728;2023-02-18T16:48:23;8.28;;;4.85;;
77828;SDS011;67019;51.034;3.728;2023-02-18T16:53:18;11.40;;;4.62;;
77828;SDS011;67019;51.034;3.728;2023-02-18T16:55:46;10.43;;;5.78;;
77828;SDS011;67019;51.034;3.728;2023-02-18T16:58:18;10.55;;;5.42;;
77828;SDS011;67019;51.034;3.728;2023-02-18T17:00:46;14.95;;;8.08;;
77828;SDS011;67019;51.034;3.728;2023-02-18T17:03:17;11.25;;;7.25;;
77828;SDS011;67019;51.034;3.728;2023-02-18T17:05:45;21.23;;;8.68;;
77828;SDS011;67019;51.034;3.728;2023-02-18T17:08:24;30.77;;;10.82;;
77828;SDS011;67019;51.034;3.728;2023-02-18T17:10:50;13.00;;;7.10;;
77828;SDS011;67019;51.034;3.728;2023-02-18T17:13:23;9.15;;;6.50;;
77828;SDS011;67019;51.034;3.728;2023-02-18T17:15:54;18.42;;;8.90;;
77828;SDS011;67019;51.034;3.728;2023-02-18T17:20:51;17.65;;;8.50;;
77828;SDS011;67019;51.034;3.728;2023-02-18T17:23:22;20.97;;;10.38;;
77828;SDS011;67019;51.034;3.728;2023-02-18T17:25:51;20.62;;;11.00;;
77828;SDS011;67019;51.034;3.728;2023-02-18T17:28:19;22.00;;;11.43;;
77828;SDS011;67019;51.034;3.728;2023-02-18T17:30:54;23.52;;;11.25;;